Headland, Alabama
Current Conditions -  °F | °C
As of 10:53 PM on Saturday 25 Oct 2014 (Local Time) from KDHN Reporting Station
Clear Clear  
Wind Chill: 56°   Ceiling: Unl
Heat Index: 56°   Visibility: 10mi
Dew Point: 50°   Wind: 5mph
Humidity: 80%   Direction: 330°NNW
Pressure: 30.08"   Gusts: NA
Location:  31.35°N, 85.34°W
Report Text: KDHN 260353Z AUTO 33004KT 10SM CLR 13/10 A3008 RMK AO2 SLP184 T01330100
Loading
Personal Weather Stations






























Interactive Weather Map New forecast layout! Learn more

10-Day Weather Forecast

Advertisements
Track Severe Weather on mobile